createdAt,value
2023-04-23T00:00:34.366Z,9.02
2023-04-23T00:03:26.172Z,12.50
2023-04-23T00:06:12.268Z,10.75
2023-04-23T00:08:42.918Z,12.05
2023-04-23T00:11:10.441Z,14.45
2023-04-23T00:13:38.332Z,13.85
2023-04-23T00:16:06.028Z,14.02
2023-04-23T00:18:33.376Z,14.38
2023-04-23T00:21:03.284Z,13.70
2023-04-23T00:23:30.387Z,11.65
2023-04-23T00:25:57.697Z,12.35
2023-04-23T00:28:24.923Z,14.10
2023-04-23T00:30:51.840Z,15.55
2023-04-23T00:33:19.237Z,11.90
2023-04-23T00:35:49.335Z,13.45
2023-04-23T00:38:16.926Z,13.13
2023-04-23T00:40:44.107Z,13.25
2023-04-23T00:43:11.916Z,14.02
2023-04-23T00:45:39.000Z,12.88
2023-04-23T00:48:07.333Z,14.43
2023-04-23T00:50:34.529Z,13.23
2023-04-23T00:53:01.615Z,14.93
2023-04-23T00:55:28.576Z,14.65
2023-04-23T00:57:56.031Z,16.00
2023-04-23T01:00:23.699Z,16.13
2023-04-23T01:02:53.230Z,14.75
2023-04-23T01:05:23.074Z,14.15
2023-04-23T01:07:51.552Z,15.63
2023-04-23T01:10:18.894Z,10.73
2023-04-23T01:12:47.082Z,14.48
2023-04-23T01:15:14.509Z,14.07
2023-04-23T01:17:41.786Z,14.10
2023-04-23T01:20:10.015Z,13.75
2023-04-23T01:22:39.111Z,14.57
2023-04-23T01:25:08.399Z,15.23
2023-04-23T01:27:36.419Z,17.88
2023-04-23T01:30:05.152Z,15.13
2023-04-23T01:32:34.433Z,14.70
2023-04-23T01:35:03.062Z,14.70
2023-04-23T01:37:31.784Z,14.77
2023-04-23T01:39:59.451Z,14.15
2023-04-23T01:42:27.060Z,16.08
2023-04-23T01:44:54.544Z,16.92
2023-04-23T01:47:22.249Z,10.73
2023-04-23T01:49:49.828Z,12.73
2023-04-23T01:52:17.254Z,13.00
2023-04-23T01:54:44.534Z,12.00
2023-04-23T01:57:13.155Z,11.70
2023-04-23T01:59:41.287Z,14.48
2023-04-23T02:02:14.119Z,14.80
2023-04-23T02:04:43.267Z,14.00
2023-04-23T02:07:10.978Z,11.63
2023-04-23T02:09:38.279Z,12.35
2023-04-23T02:12:06.003Z,11.32
2023-04-23T02:14:33.257Z,12.25
2023-04-23T02:17:00.762Z,10.45
2023-04-23T02:19:28.190Z,10.77
2023-04-23T02:21:55.883Z,12.25
2023-04-23T02:24:22.856Z,10.15
2023-04-23T02:26:50.354Z,9.15
2023-04-23T02:29:17.383Z,8.40
2023-04-23T02:31:44.570Z,12.02
2023-04-23T02:34:12.257Z,8.73
2023-04-23T02:36:39.704Z,7.75
2023-04-23T02:39:07.682Z,8.60
2023-04-23T02:41:35.195Z,9.73
2023-04-23T02:44:02.217Z,8.07
2023-04-23T02:46:29.805Z,10.48
2023-04-23T02:48:59.953Z,6.07
2023-04-23T02:51:27.767Z,6.25
2023-04-23T02:53:55.751Z,7.15
2023-04-23T02:56:23.355Z,7.88
2023-04-23T02:58:51.584Z,8.20
2023-04-23T03:01:19.563Z,6.70
2023-04-23T03:03:47.452Z,6.85
2023-04-23T03:06:15.438Z,9.43
2023-04-23T03:08:43.115Z,10.32
2023-04-23T03:11:11.252Z,11.05
2023-04-23T03:13:39.025Z,11.65
2023-04-23T03:16:07.314Z,10.23
2023-04-23T03:18:35.354Z,8.70
2023-04-23T03:21:03.969Z,8.07
2023-04-23T03:23:32.168Z,8.38
2023-04-23T03:25:59.157Z,8.88
2023-04-23T03:28:26.638Z,8.27
2023-04-23T03:30:53.931Z,7.65
2023-04-23T03:33:37.193Z,9.75
2023-04-23T03:36:06.194Z,6.82
2023-04-23T03:38:34.287Z,6.70
2023-04-23T03:41:03.903Z,9.57
2023-04-23T03:43:34.041Z,6.30
2023-04-23T03:46:05.365Z,7.18
2023-04-23T03:48:37.342Z,6.88
2023-04-23T03:51:10.385Z,5.95
2023-04-23T03:53:45.175Z,8.38
2023-04-23T03:56:30.968Z,8.20
2023-04-23T03:59:13.308Z,4.88
2023-04-23T04:01:41.022Z,8.07
2023-04-23T04:04:09.190Z,7.47
2023-04-23T04:06:37.075Z,5.82
2023-04-23T04:09:04.472Z,9.38
2023-04-23T04:11:31.680Z,6.50
2023-04-23T04:13:59.367Z,9.13
2023-04-23T04:16:27.224Z,11.82
2023-04-23T04:18:56.609Z,12.57
2023-04-23T04:21:23.943Z,12.18
2023-04-23T04:23:51.346Z,13.02
2023-04-23T04:26:19.301Z,12.63
2023-04-23T04:28:47.174Z,8.05
2023-04-23T04:31:16.401Z,6.07
2023-04-23T04:33:46.802Z,8.10
2023-04-23T04:36:15.998Z,5.30
2023-04-23T04:38:44.781Z,6.45
2023-04-23T04:41:12.293Z,5.72
2023-04-23T04:43:41.823Z,7.63
2023-04-23T04:46:12.221Z,6.50
2023-04-23T04:48:41.102Z,8.80
2023-04-23T04:51:08.869Z,7.53
2023-04-23T04:53:36.465Z,6.72
2023-04-23T04:56:04.417Z,5.85
2023-04-23T04:58:32.074Z,5.45
2023-04-23T05:01:00.062Z,4.72
2023-04-23T05:03:52.198Z,8.13
2023-04-23T05:06:20.238Z,4.63
2023-04-23T05:08:49.077Z,5.47
2023-04-23T05:11:18.845Z,9.63
2023-04-23T05:13:47.361Z,6.90
2023-04-23T05:16:15.474Z,7.47
2023-04-23T05:18:47.071Z,6.00
2023-04-23T05:21:16.421Z,7.75
2023-04-23T05:23:43.778Z,6.65
2023-04-23T05:26:12.094Z,5.97
2023-04-23T05:28:39.933Z,5.85
2023-04-23T05:31:07.808Z,4.90
2023-04-23T05:33:46.378Z,4.15
2023-04-23T05:36:17.500Z,3.50
2023-04-23T05:38:45.433Z,5.05
2023-04-23T05:41:13.164Z,5.60
2023-04-23T05:43:41.193Z,5.30
2023-04-23T05:46:15.330Z,4.13
2023-04-23T05:48:43.414Z,4.88
2023-04-23T05:51:12.722Z,4.45
2023-04-23T05:53:40.756Z,3.65
2023-04-23T05:56:08.751Z,3.60
2023-04-23T05:58:37.362Z,3.53
2023-04-23T06:01:05.579Z,2.25
2023-04-23T06:03:33.339Z,4.25
2023-04-23T06:06:00.954Z,3.25
2023-04-23T06:08:28.503Z,3.47
2023-04-23T06:10:56.467Z,3.67
2023-04-23T06:13:23.971Z,3.08
2023-04-23T06:15:51.992Z,5.57
2023-04-23T06:18:19.310Z,4.60
2023-04-23T06:20:48.570Z,3.08
2023-04-23T06:23:16.136Z,3.22
2023-04-23T06:25:44.095Z,2.85
2023-04-23T06:28:11.705Z,3.97
2023-04-23T06:31:05.821Z,6.13
2023-04-23T06:33:34.692Z,5.88
2023-04-23T06:36:01.634Z,4.20
2023-04-23T06:38:29.200Z,4.93
2023-04-23T06:40:57.500Z,3.75
2023-04-23T06:43:25.955Z,4.93
2023-04-23T06:46:11.653Z,5.63
2023-04-23T06:48:40.037Z,3.90
2023-04-23T06:51:08.501Z,3.17
2023-04-23T06:53:37.818Z,3.28
2023-04-23T06:56:05.814Z,4.90
2023-04-23T06:58:34.559Z,4.03
2023-04-23T07:01:12.104Z,4.20
2023-04-23T07:03:40.499Z,5.45
2023-04-23T07:06:09.155Z,4.05
2023-04-23T07:08:36.967Z,4.13
2023-04-23T07:11:05.191Z,3.20
2023-04-23T07:13:33.870Z,3.80
2023-04-23T07:16:01.962Z,5.85
2023-04-23T07:18:36.369Z,3.95
2023-04-23T07:21:04.290Z,3.90
2023-04-23T07:23:31.796Z,4.00
2023-04-23T07:25:59.896Z,3.67
2023-04-23T07:28:28.072Z,3.38
2023-04-23T07:30:56.753Z,3.40
2023-04-23T07:33:23.909Z,3.30
2023-04-23T07:35:52.143Z,3.05
2023-04-23T07:38:20.814Z,2.33
2023-04-23T07:40:48.645Z,2.90
2023-04-23T07:43:18.916Z,2.05
2023-04-23T07:45:47.449Z,2.05
2023-04-23T07:48:19.903Z,2.03
2023-04-23T07:50:47.728Z,1.98
2023-04-23T07:53:15.989Z,1.98
2023-04-23T07:55:45.494Z,1.13
2023-04-23T07:58:13.805Z,1.90
2023-04-23T08:00:43.016Z,4.32
2023-04-23T08:03:11.719Z,1.63
2023-04-23T08:05:41.323Z,2.00
2023-04-23T08:08:09.990Z,2.55
2023-04-23T08:10:38.122Z,1.35
2023-04-23T08:13:05.858Z,2.17
2023-04-23T08:15:33.615Z,1.95
2023-04-23T08:18:01.966Z,2.33
2023-04-23T08:20:29.691Z,2.10
2023-04-23T08:22:58.020Z,2.95
2023-04-23T08:25:27.382Z,1.50
2023-04-23T08:27:54.480Z,1.75
2023-04-23T08:30:22.967Z,2.15
2023-04-23T08:32:56.652Z,2.83
2023-04-23T08:35:25.133Z,3.03
2023-04-23T08:37:52.251Z,3.35
2023-04-23T08:40:19.835Z,2.40
2023-04-23T08:42:57.655Z,2.50
2023-04-23T08:45:26.457Z,4.95
2023-04-23T08:48:01.539Z,2.58
2023-04-23T08:50:31.827Z,2.47
2023-04-23T08:53:00.916Z,2.72
2023-04-23T08:55:29.298Z,1.60
2023-04-23T08:57:59.629Z,3.92
2023-04-23T09:00:27.433Z,2.28
2023-04-23T09:02:56.958Z,2.40
2023-04-23T09:05:24.920Z,5.88
2023-04-23T09:07:54.022Z,2.88
2023-04-23T09:10:21.249Z,2.67
2023-04-23T09:12:50.619Z,2.33
2023-04-23T09:15:20.269Z,4.10
2023-04-23T09:17:48.506Z,2.63
2023-04-23T09:20:16.328Z,3.08
2023-04-23T09:23:01.150Z,2.70
2023-04-23T09:25:28.825Z,3.63
2023-04-23T09:27:59.825Z,4.53
2023-04-23T09:30:31.594Z,3.60
2023-04-23T09:32:59.763Z,3.30
2023-04-23T09:35:29.386Z,2.45
2023-04-23T09:37:58.520Z,2.40
2023-04-23T09:40:28.183Z,3.33
2023-04-23T09:42:56.110Z,1.80
2023-04-23T09:45:27.011Z,2.65
2023-04-23T09:47:56.651Z,1.80
2023-04-23T09:50:39.447Z,2.47
2023-04-23T09:53:10.182Z,3.33
2023-04-23T09:55:40.237Z,2.60
2023-04-23T09:58:12.719Z,2.08
2023-04-23T10:00:40.929Z,3.17
2023-04-23T10:03:10.360Z,2.45
2023-04-23T10:06:00.651Z,1.95
2023-04-23T10:08:31.400Z,2.10
2023-04-23T10:11:13.778Z,1.85
2023-04-23T10:13:47.547Z,1.98
2023-04-23T10:16:22.485Z,2.05
2023-04-23T10:18:55.903Z,1.92
2023-04-23T10:21:39.482Z,3.28
2023-04-23T10:24:15.170Z,1.90
2023-04-23T10:26:44.461Z,2.22
2023-04-23T10:29:19.098Z,2.70
2023-04-23T10:31:46.913Z,3.92
2023-04-23T10:34:15.715Z,2.25
2023-04-23T10:36:43.387Z,2.05
2023-04-23T10:39:12.753Z,3.38
2023-04-23T10:41:42.486Z,2.58
2023-04-23T10:44:16.031Z,2.47
2023-04-23T10:46:57.907Z,3.75
2023-04-23T10:49:26.306Z,1.92
2023-04-23T10:52:19.330Z,1.95
2023-04-23T10:54:50.866Z,2.10
2023-04-23T10:57:17.883Z,3.15
2023-04-23T10:59:56.354Z,3.00
2023-04-23T11:02:25.848Z,1.90
2023-04-23T11:05:01.824Z,1.95
2023-04-23T11:07:33.928Z,2.75
2023-04-23T11:10:13.243Z,2.25
2023-04-23T11:12:41.079Z,3.13
2023-04-23T11:15:19.928Z,2.42
2023-04-23T11:17:54.635Z,1.52
2023-04-23T11:20:24.352Z,2.00
2023-04-23T11:22:53.514Z,2.50
2023-04-23T11:25:27.923Z,1.67
2023-04-23T11:27:58.420Z,2.40
2023-04-23T11:30:30.674Z,2.10
2023-04-23T11:33:00.262Z,2.05
2023-04-23T11:35:29.634Z,1.63
2023-04-23T11:37:57.200Z,2.45
2023-04-23T11:40:24.485Z,1.90
2023-04-23T11:42:55.736Z,2.13
2023-04-23T11:45:27.946Z,2.40
2023-04-23T11:47:59.389Z,2.15
2023-04-23T11:52:55.871Z,2.28
2023-04-23T11:55:24.275Z,2.33
2023-04-23T11:57:53.025Z,3.55
2023-04-23T12:00:24.169Z,3.25
2023-04-23T12:02:51.882Z,2.57
2023-04-23T12:05:24.322Z,4.20
2023-04-23T12:07:54.921Z,4.15
2023-04-23T12:10:23.075Z,3.55
2023-04-23T12:12:54.234Z,4.60
2023-04-23T12:15:21.966Z,3.22
2023-04-23T12:18:08.446Z,3.10
2023-04-23T12:20:35.848Z,3.13
2023-04-23T12:23:06.946Z,3.67
2023-04-23T12:25:35.343Z,4.80
2023-04-23T12:28:07.617Z,4.55
2023-04-23T12:30:35.672Z,3.85
2023-04-23T12:33:04.868Z,3.50
2023-04-23T12:35:46.546Z,3.00
2023-04-23T12:38:26.945Z,3.35
2023-04-23T12:40:55.935Z,4.25
2023-04-23T12:43:23.973Z,2.60
2023-04-23T12:45:52.364Z,4.22
2023-04-23T12:48:19.907Z,2.67
2023-04-23T12:50:49.093Z,3.65
2023-04-23T12:53:16.497Z,3.13
2023-04-23T12:55:45.670Z,3.20
2023-04-23T12:58:13.204Z,4.22
2023-04-23T13:00:40.469Z,3.33
2023-04-23T13:03:08.874Z,3.03
2023-04-23T13:05:36.899Z,2.80
2023-04-23T13:08:04.517Z,3.60
2023-04-23T13:10:33.091Z,2.05
2023-04-23T13:13:01.234Z,2.75
2023-04-23T13:15:28.835Z,3.03
2023-04-23T13:17:56.418Z,2.95
2023-04-23T13:20:26.572Z,3.10
2023-04-23T13:22:54.179Z,3.08
2023-04-23T13:25:21.521Z,3.72
2023-04-23T13:27:48.946Z,1.95
2023-04-23T13:30:16.683Z,2.58
2023-04-23T13:32:44.447Z,2.53
2023-04-23T13:35:12.361Z,3.33
2023-04-23T13:37:41.506Z,2.72
2023-04-23T13:40:09.171Z,2.47
2023-04-23T13:42:36.236Z,2.33
2023-04-23T13:45:06.622Z,2.33
2023-04-23T13:47:35.268Z,4.22
2023-04-23T13:50:06.825Z,2.47
2023-04-23T13:52:40.437Z,2.78
2023-04-23T13:55:11.109Z,2.55
2023-04-23T13:57:41.810Z,2.65
2023-04-23T14:00:15.452Z,4.90
2023-04-23T14:02:45.256Z,3.63
2023-04-23T14:05:14.090Z,3.08
2023-04-23T14:07:42.504Z,3.33
2023-04-23T14:10:10.442Z,4.32
2023-04-23T14:12:39.472Z,6.82
2023-04-23T14:15:09.466Z,8.93
2023-04-23T14:17:39.674Z,2.78
2023-04-23T14:20:08.449Z,2.83
2023-04-23T14:22:36.277Z,2.55
2023-04-23T14:25:09.960Z,2.67
2023-04-23T14:27:44.864Z,2.83
2023-04-23T14:30:19.725Z,3.75
2023-04-23T14:32:49.777Z,3.20
2023-04-23T14:35:17.726Z,3.72
2023-04-23T14:37:45.976Z,2.78
2023-04-23T14:40:15.939Z,4.50
2023-04-23T14:42:43.577Z,2.78
2023-04-23T14:45:11.369Z,3.13
2023-04-23T14:47:41.070Z,2.75
2023-04-23T14:50:08.614Z,2.05
2023-04-23T14:52:36.457Z,5.55
2023-04-23T14:55:03.444Z,3.50
2023-04-23T14:57:31.296Z,2.50
2023-04-23T14:59:58.733Z,2.38
2023-04-23T15:02:26.589Z,3.40
2023-04-23T15:04:54.097Z,3.80
2023-04-23T15:07:21.598Z,3.08
2023-04-23T15:09:50.277Z,5.43
2023-04-23T15:12:40.434Z,2.47
2023-04-23T15:15:37.045Z,5.05
2023-04-23T15:18:08.605Z,2.53
2023-04-23T15:20:35.870Z,2.22
2023-04-23T15:23:03.026Z,2.30
2023-04-23T15:25:30.876Z,3.03
2023-04-23T15:27:58.399Z,2.50
2023-04-23T15:30:27.026Z,4.45
2023-04-23T15:32:58.201Z,2.05
2023-04-23T15:35:27.302Z,4.80
2023-04-23T15:37:55.314Z,2.50
2023-04-23T15:40:22.762Z,2.08
2023-04-23T15:42:50.227Z,2.90
2023-04-23T15:45:17.973Z,1.98
2023-04-23T15:47:46.125Z,2.70
2023-04-23T15:50:15.622Z,4.10
2023-04-23T15:52:43.401Z,2.33
2023-04-23T15:55:11.323Z,3.05
2023-04-23T15:57:39.161Z,3.25
2023-04-23T16:00:07.378Z,3.00
2023-04-23T16:02:39.589Z,3.45
2023-04-23T16:05:07.612Z,3.72
2023-04-23T16:07:35.106Z,3.50
2023-04-23T16:10:03.049Z,2.45
2023-04-23T16:12:31.221Z,3.75
2023-04-23T16:14:58.697Z,3.20
2023-04-23T16:17:28.679Z,2.80
2023-04-23T16:19:56.507Z,2.88
2023-04-23T16:22:25.625Z,3.17
2023-04-23T16:24:54.276Z,3.90
2023-04-23T16:27:22.087Z,4.88
2023-04-23T16:29:51.695Z,2.90
2023-04-23T16:32:21.016Z,5.07
2023-04-23T16:34:51.010Z,4.13
2023-04-23T16:37:18.451Z,3.83
2023-04-23T16:39:45.704Z,3.38
2023-04-23T16:42:12.802Z,4.82
2023-04-23T16:44:40.572Z,4.45
2023-04-23T16:47:08.072Z,2.85
2023-04-23T16:49:35.497Z,3.33
2023-04-23T16:52:04.056Z,4.80
2023-04-23T16:54:34.303Z,3.60
2023-04-23T16:57:02.506Z,4.93
2023-04-23T16:59:29.906Z,5.72
2023-04-23T17:01:57.368Z,3.78
2023-04-23T17:04:25.601Z,6.53
2023-04-23T17:06:53.301Z,6.88
2023-04-23T17:09:21.123Z,7.65
2023-04-23T17:11:49.008Z,6.05
2023-04-23T17:14:16.405Z,4.25
2023-04-23T17:16:45.749Z,5.32
2023-04-23T17:19:13.478Z,7.50
2023-04-23T17:21:41.593Z,4.95
2023-04-23T17:24:09.393Z,7.20
2023-04-23T17:26:38.946Z,6.05
2023-04-23T17:29:06.893Z,7.75
2023-04-23T17:31:37.674Z,9.00
2023-04-23T17:34:06.298Z,6.30
2023-04-23T17:36:33.242Z,6.28
2023-04-23T17:39:00.313Z,7.88
2023-04-23T17:41:27.407Z,7.65
2023-04-23T17:43:54.440Z,6.53
2023-04-23T17:46:21.904Z,6.88
2023-04-23T17:48:49.608Z,8.73
2023-04-23T17:51:16.811Z,7.80
2023-04-23T17:53:49.180Z,9.55
2023-04-23T17:56:16.579Z,5.78
2023-04-23T17:58:43.416Z,5.05
2023-04-23T18:01:11.601Z,5.63
2023-04-23T18:03:38.792Z,8.02
2023-04-23T18:06:08.731Z,9.40
2023-04-23T18:08:36.594Z,9.68
2023-04-23T18:11:04.676Z,7.10
2023-04-23T18:13:32.004Z,20.83
2023-04-23T18:15:59.116Z,19.08
2023-04-23T18:18:26.314Z,18.95
2023-04-23T18:20:53.619Z,17.35
2023-04-23T18:23:24.619Z,14.20
2023-04-23T18:25:52.094Z,37.05
2023-04-23T18:28:19.162Z,41.55
2023-04-23T18:30:46.711Z,156.73
2023-04-23T18:33:30.889Z,156.30
2023-04-23T18:36:04.130Z,141.15
2023-04-23T18:38:47.200Z,129.82
2023-04-23T18:43:41.535Z,44.55
2023-04-23T18:46:10.791Z,16.55
2023-04-23T18:48:43.937Z,9.65
2023-04-23T18:51:26.710Z,8.43
2023-04-23T18:53:54.199Z,11.48
2023-04-23T18:56:21.149Z,11.88
2023-04-23T18:58:48.333Z,17.33
2023-04-23T19:01:15.544Z,28.88
2023-04-23T19:03:43.319Z,26.98
2023-04-23T19:06:10.706Z,23.65
2023-04-23T19:08:38.175Z,20.15
2023-04-23T19:11:06.612Z,16.15
2023-04-23T19:13:36.888Z,13.20
2023-04-23T19:16:07.324Z,15.00
2023-04-23T19:18:34.803Z,17.15
2023-04-23T19:21:01.978Z,17.50
2023-04-23T19:23:28.971Z,18.60
2023-04-23T19:25:57.288Z,21.15
2023-04-23T19:28:25.736Z,21.00
2023-04-23T19:30:53.333Z,20.10
2023-04-23T19:33:20.198Z,22.17
2023-04-23T19:35:47.317Z,26.83
2023-04-23T19:38:14.192Z,24.77
2023-04-23T19:40:42.351Z,25.00
2023-04-23T19:43:10.848Z,25.67
2023-04-23T19:45:39.591Z,26.63
2023-04-23T19:48:07.956Z,26.52
2023-04-23T19:50:36.054Z,22.45
2023-04-23T19:53:05.886Z,24.45
2023-04-23T19:55:33.434Z,29.92
2023-04-23T19:58:01.023Z,33.22
2023-04-23T20:00:31.272Z,28.15
2023-04-23T20:02:58.855Z,31.38
2023-04-23T20:05:27.002Z,31.10
2023-04-23T20:07:54.229Z,25.30
2023-04-23T20:10:21.421Z,28.17
2023-04-23T20:12:48.384Z,30.33
2023-04-23T20:15:15.166Z,27.27
2023-04-23T20:17:42.447Z,25.65
2023-04-23T20:20:10.802Z,30.75
2023-04-23T20:22:37.972Z,38.22
2023-04-23T20:25:05.574Z,25.95
2023-04-23T20:27:33.306Z,23.85
2023-04-23T20:30:00.221Z,22.63
2023-04-23T20:32:27.016Z,23.27
2023-04-23T20:34:54.519Z,21.75
2023-04-23T20:37:21.773Z,19.67
2023-04-23T20:39:50.051Z,19.17
2023-04-23T20:42:17.290Z,19.25
2023-04-23T20:44:47.186Z,21.25
2023-04-23T20:47:16.458Z,21.88
2023-04-23T20:49:43.977Z,22.10
2023-04-23T20:52:12.347Z,21.95
2023-04-23T20:54:39.630Z,27.30
2023-04-23T20:57:07.146Z,23.08
2023-04-23T20:59:34.515Z,25.55
2023-04-23T21:02:01.523Z,26.52
2023-04-23T21:04:29.082Z,22.83
2023-04-23T21:06:56.436Z,30.33
2023-04-23T21:09:23.655Z,22.33
2023-04-23T21:11:51.051Z,27.80
2023-04-23T21:14:18.043Z,26.38
2023-04-23T21:16:44.957Z,34.38
2023-04-23T21:19:12.124Z,37.53
2023-04-23T21:21:39.591Z,31.95
2023-04-23T21:24:07.722Z,35.28
2023-04-23T21:26:34.523Z,32.17
2023-04-23T21:29:01.622Z,24.77
2023-04-23T21:31:50.990Z,23.15
2023-04-23T21:34:19.769Z,25.73
2023-04-23T21:36:47.361Z,23.83
2023-04-23T21:39:14.884Z,24.15
2023-04-23T21:41:42.082Z,23.00
2023-04-23T21:44:09.620Z,24.77
2023-04-23T21:46:38.143Z,27.25
2023-04-23T21:49:05.793Z,26.73
2023-04-23T21:51:37.313Z,28.52
2023-04-23T21:54:05.972Z,24.05
2023-04-23T21:56:36.108Z,28.70
2023-04-23T21:59:03.385Z,22.52
2023-04-23T22:01:33.651Z,23.92
2023-04-23T22:04:03.551Z,21.48
2023-04-23T22:06:31.732Z,20.63
2023-04-23T22:08:59.105Z,28.45
2023-04-23T22:11:26.205Z,24.50
2023-04-23T22:13:53.257Z,22.58
2023-04-23T22:16:28.784Z,16.95
2023-04-23T22:18:57.464Z,19.77
2023-04-23T22:21:24.760Z,21.10
2023-04-23T22:23:52.265Z,17.48
2023-04-23T22:26:19.067Z,16.08
2023-04-23T22:28:46.166Z,12.18
2023-04-23T22:31:13.381Z,14.05
2023-04-23T22:33:43.209Z,16.88
2023-04-23T22:36:10.945Z,13.13
2023-04-23T22:38:37.978Z,16.42
2023-04-23T22:41:05.404Z,15.90
2023-04-23T22:43:32.697Z,14.60
2023-04-23T22:46:00.134Z,17.17
2023-04-23T22:48:28.176Z,14.25
2023-04-23T22:50:55.279Z,11.85
2023-04-23T22:53:22.633Z,11.70
2023-04-23T22:55:49.732Z,10.50
2023-04-23T22:58:17.261Z,12.35
2023-04-23T23:00:44.507Z,12.43
2023-04-23T23:03:12.155Z,14.75
2023-04-23T23:05:39.465Z,11.65
2023-04-23T23:08:09.451Z,11.10
2023-04-23T23:10:36.559Z,12.82
2023-04-23T23:13:03.949Z,39.38
2023-04-23T23:15:31.166Z,24.40
2023-04-23T23:17:58.489Z,18.83
2023-04-23T23:20:28.369Z,17.15
2023-04-23T23:22:55.453Z,19.95
2023-04-23T23:25:23.207Z,19.50
2023-04-23T23:27:50.602Z,22.67
2023-04-23T23:30:17.827Z,18.75
2023-04-23T23:32:44.847Z,18.85
2023-04-23T23:35:11.918Z,14.93
2023-04-23T23:37:39.116Z,14.05
2023-04-23T23:40:07.262Z,14.27
2023-04-23T23:42:34.085Z,13.60
2023-04-23T23:45:01.073Z,16.88
2023-04-23T23:47:28.535Z,15.13
2023-04-23T23:49:55.716Z,15.65
2023-04-23T23:52:23.624Z,16.38
2023-04-23T23:54:51.295Z,14.70
2023-04-23T23:57:24.092Z,16.52
2023-04-23T23:59:51.958Z,15.38
